Time;durP1;ratioP1;P1;durP2;ratioP2;P2;SDS_P1;SDS_P2;PMS_P1;PMS_P2;Temp;Humidity;BMP_temperature;BMP_pressure;BME280_temperature;BME280_humidity;BME280_pressure;Samples;Min_cycle;Max_cycle;Signal;HPM_P1;HPM_P2
2022/03/01 00:01:03;;;;;;;16.05;7.70;;;;;;;;;;5053267;28;20029;-69
2022/03/01 00:03:29;;;;;;;15.30;8.00;;;;;;;;;;5051822;28;20093;-71
2022/03/01 00:05:55;;;;;;;17.63;9.13;;;;;;;;;;5053155;28;20040;-69
2022/03/01 00:08:21;;;;;;;15.50;7.53;;;;;;;;;;5053153;28;20028;-69
2022/03/01 00:10:47;;;;;;;14.85;7.90;;;;;;;;;;5053031;28;20029;-68
2022/03/01 00:13:13;;;;;;;16.33;8.98;;;;;;;;;;5052956;28;20075;-69
2022/03/01 00:15:39;;;;;;;13.00;7.10;;;;;;;;;;5053094;28;20029;-70
2022/03/01 00:18:05;;;;;;;15.15;7.35;;;;;;;;;;5052968;28;20021;-70
2022/03/01 00:20:31;;;;;;;16.67;7.25;;;;;;;;;;5051507;28;20020;-71
2022/03/01 00:22:57;;;;;;;14.43;6.50;;;;;;;;;;5052706;28;20033;-69
2022/03/01 00:25:23;;;;;;;15.80;8.25;;;;;;;;;;5052717;28;20094;-69
2022/03/01 00:27:48;;;;;;;14.90;6.57;;;;;;;;;;5052672;28;20053;-70
2022/03/01 00:30:14;;;;;;;14.65;6.55;;;;;;;;;;5052561;28;20025;-69
2022/03/01 00:32:40;;;;;;;12.50;6.97;;;;;;;;;;5052572;28;20106;-69
2022/03/01 00:35:06;;;;;;;17.05;7.70;;;;;;;;;;5052715;28;20391;-70
2022/03/01 00:37:32;;;;;;;14.88;6.28;;;;;;;;;;5052561;28;20033;-69
2022/03/01 00:39:58;;;;;;;13.00;6.15;;;;;;;;;;5052346;28;20040;-69
2022/03/01 00:42:24;;;;;;;15.38;6.82;;;;;;;;;;5052280;28;20041;-69
2022/03/01 00:44:50;;;;;;;16.15;8.20;;;;;;;;;;5052084;28;20061;-69
2022/03/01 00:47:16;;;;;;;11.85;6.10;;;;;;;;;;5052242;28;20029;-69
2022/03/01 00:49:42;;;;;;;12.90;5.80;;;;;;;;;;5051946;28;20040;-70
2022/03/01 00:52:08;;;;;;;10.80;5.40;;;;;;;;;;5052117;28;20549;-70
2022/03/01 00:54:34;;;;;;;17.02;6.88;;;;;;;;;;5051896;28;20025;-70
2022/03/01 00:57:00;;;;;;;13.70;6.57;;;;;;;;;;5052200;28;20029;-71
2022/03/01 00:59:26;;;;;;;11.95;6.57;;;;;;;;;;5052005;28;20032;-69
2022/03/01 01:01:52;;;;;;;17.58;6.43;;;;;;;;;;5051482;28;20040;-69
2022/03/01 01:04:18;;;;;;;14.00;6.65;;;;;;;;;;5051788;28;20064;-69
2022/03/01 01:06:43;;;;;;;15.52;7.25;;;;;;;;;;5052089;28;20028;-69
2022/03/01 01:09:12;;;;;;;11.82;5.97;;;;;;;;;;5052084;28;20029;-69
2022/03/01 01:11:39;;;;;;;13.05;6.68;;;;;;;;;;5052091;28;20471;-69
2022/03/01 01:14:05;;;;;;;15.88;8.73;;;;;;;;;;5051610;28;20024;-70
2022/03/01 01:16:30;;;;;;;16.55;8.30;;;;;;;;;;5052159;28;20111;-71
2022/03/01 01:18:56;;;;;;;15.30;7.25;;;;;;;;;;5050639;28;20032;-72
2022/03/01 01:21:22;;;;;;;12.02;6.47;;;;;;;;;;5051851;28;20037;-69
2022/03/01 01:23:48;;;;;;;16.70;7.05;;;;;;;;;;5051631;28;20051;-69
2022/03/01 01:26:14;;;;;;;11.93;6.38;;;;;;;;;;5051813;28;20025;-69
2022/03/01 01:28:40;;;;;;;15.40;6.85;;;;;;;;;;5051609;28;20029;-68
2022/03/01 01:31:06;;;;;;;15.00;7.50;;;;;;;;;;5051606;28;20040;-70
2022/03/01 01:33:32;;;;;;;14.25;6.90;;;;;;;;;;5051373;28;20471;-70
2022/03/01 01:35:58;;;;;;;18.52;7.15;;;;;;;;;;5050355;28;20546;-69
2022/03/01 01:38:24;;;;;;;16.85;7.43;;;;;;;;;;5051650;28;20021;-69
2022/03/01 01:40:50;;;;;;;18.20;7.85;;;;;;;;;;5051675;28;20061;-68
2022/03/01 01:43:16;;;;;;;15.98;8.07;;;;;;;;;;5051265;28;20418;-68
2022/03/01 01:45:42;;;;;;;20.45;7.68;;;;;;;;;;5051537;28;20530;-69
2022/03/01 01:48:08;;;;;;;13.60;6.90;;;;;;;;;;5050529;28;20025;-68
2022/03/01 01:50:34;;;;;;;16.75;7.75;;;;;;;;;;5051034;28;20029;-68
2022/03/01 01:53:01;;;;;;;19.63;8.43;;;;;;;;;;5051088;28;20398;-69
2022/03/01 01:55:28;;;;;;;16.20;7.85;;;;;;;;;;5051479;28;20033;-69
2022/03/01 01:57:55;;;;;;;18.60;8.57;;;;;;;;;;5051461;28;20021;-69
2022/03/01 02:00:21;;;;;;;22.50;8.82;;;;;;;;;;5051403;28;20032;-68
2022/03/01 02:02:47;;;;;;;15.23;7.05;;;;;;;;;;5051238;28;20029;-68
2022/03/01 02:05:13;;;;;;;19.60;8.43;;;;;;;;;;5051301;28;20037;-69
2022/03/01 02:07:44;;;;;;;19.13;8.10;;;;;;;;;;5051261;28;20028;-70
2022/03/01 02:10:10;;;;;;;16.40;7.72;;;;;;;;;;5051411;28;20108;-70
2022/03/01 02:12:36;;;;;;;16.20;7.28;;;;;;;;;;5051410;28;20074;-70
2022/03/01 02:15:03;;;;;;;18.98;8.20;;;;;;;;;;5053967;28;20025;-71
2022/03/01 02:17:29;;;;;;;19.08;7.70;;;;;;;;;;5053876;28;20039;-69
2022/03/01 02:19:55;;;;;;;14.95;6.90;;;;;;;;;;5055075;28;20104;-69
2022/03/01 02:22:21;;;;;;;13.45;6.95;;;;;;;;;;5054860;28;20075;-69
2022/03/01 02:24:47;;;;;;;23.27;8.90;;;;;;;;;;5055198;28;20039;-69
2022/03/01 02:27:13;;;;;;;16.45;7.65;;;;;;;;;;5055227;28;20399;-68
2022/03/01 02:29:40;;;;;;;15.10;7.65;;;;;;;;;;5054887;28;20036;-69
2022/03/01 02:32:08;;;;;;;13.13;7.72;;;;;;;;;;5054866;28;20505;-68
2022/03/01 02:34:35;;;;;;;14.80;6.38;;;;;;;;;;5054651;28;20032;-69
2022/03/01 02:37:01;;;;;;;18.38;9.13;;;;;;;;;;5054784;28;20261;-69
2022/03/01 02:39:27;;;;;;;15.35;7.85;;;;;;;;;;5054907;28;20029;-72
2022/03/01 02:41:53;;;;;;;19.67;8.57;;;;;;;;;;5054801;28;20029;-70
2022/03/01 02:44:19;;;;;;;14.55;6.97;;;;;;;;;;5054481;28;20037;-71
2022/03/01 02:46:45;;;;;;;17.52;8.77;;;;;;;;;;5054544;28;20036;-71
2022/03/01 02:49:11;;;;;;;17.35;8.32;;;;;;;;;;5052796;28;20028;-70
2022/03/01 02:51:37;;;;;;;19.30;7.68;;;;;;;;;;5053316;28;20040;-71
2022/03/01 02:54:04;;;;;;;20.45;8.23;;;;;;;;;;5053892;28;20433;-70
2022/03/01 02:56:30;;;;;;;12.00;7.05;;;;;;;;;;5053512;28;20067;-68
2022/03/01 02:58:58;;;;;;;21.13;8.13;;;;;;;;;;5053139;28;20486;-68
2022/03/01 03:01:24;;;;;;;16.98;8.77;;;;;;;;;;5052738;28;20025;-68
2022/03/01 03:03:50;;;;;;;17.15;7.60;;;;;;;;;;5053046;28;20460;-68
2022/03/01 03:06:17;;;;;;;15.77;7.72;;;;;;;;;;5054310;28;20050;-68
2022/03/01 03:08:43;;;;;;;16.10;7.93;;;;;;;;;;5054356;28;20108;-68
2022/03/01 03:11:09;;;;;;;17.13;8.13;;;;;;;;;;5054055;28;20060;-69
2022/03/01 03:13:36;;;;;;;15.35;7.57;;;;;;;;;;5053820;28;20545;-69
2022/03/01 03:16:02;;;;;;;15.60;6.80;;;;;;;;;;5054135;28;20470;-71
2022/03/01 03:18:28;;;;;;;14.15;6.65;;;;;;;;;;5054193;28;20048;-70
2022/03/01 03:20:54;;;;;;;14.73;6.80;;;;;;;;;;5053907;28;20459;-69
2022/03/01 03:23:20;;;;;;;17.48;6.95;;;;;;;;;;5053934;28;20084;-69
2022/03/01 03:25:46;;;;;;;17.02;7.20;;;;;;;;;;5053335;28;20033;-69
2022/03/01 03:28:12;;;;;;;13.40;6.10;;;;;;;;;;5053967;28;20036;-70
2022/03/01 03:30:38;;;;;;;16.30;7.85;;;;;;;;;;5052024;28;20395;-71
2022/03/01 03:33:04;;;;;;;14.60;7.28;;;;;;;;;;5052240;28;20090;-69
2022/03/01 03:35:30;;;;;;;15.60;6.97;;;;;;;;;;5053667;28;20057;-68
2022/03/01 03:37:56;;;;;;;12.95;6.53;;;;;;;;;;5053653;28;20021;-68
2022/03/01 03:40:22;;;;;;;12.93;6.32;;;;;;;;;;5053517;28;20032;-68
2022/03/01 03:42:48;;;;;;;13.80;7.40;;;;;;;;;;5054530;28;20029;-68
2022/03/01 03:45:14;;;;;;;19.00;7.50;;;;;;;;;;5053640;28;20029;-68
2022/03/01 03:47:41;;;;;;;17.55;6.80;;;;;;;;;;5053548;28;20025;-68
2022/03/01 03:50:09;;;;;;;10.18;5.85;;;;;;;;;;5053393;28;20214;-69
2022/03/01 03:52:35;;;;;;;16.77;6.50;;;;;;;;;;5051799;28;20418;-69
2022/03/01 03:55:01;;;;;;;18.17;8.20;;;;;;;;;;5053013;28;20025;-69
2022/03/01 03:57:27;;;;;;;12.65;6.93;;;;;;;;;;5052921;28;20029;-68
2022/03/01 03:59:53;;;;;;;18.05;8.23;;;;;;;;;;5053210;28;20039;-69
2022/03/01 04:02:19;;;;;;;14.93;7.38;;;;;;;;;;5053000;28;20100;-69
2022/03/01 04:04:45;;;;;;;17.77;8.05;;;;;;;;;;5052770;28;20025;-72
2022/03/01 04:07:11;;;;;;;16.52;7.68;;;;;;;;;;5051830;28;20033;-71
2022/03/01 04:09:37;;;;;;;18.83;7.93;;;;;;;;;;5051552;28;20411;-68
2022/03/01 04:12:03;;;;;;;15.70;6.72;;;;;;;;;;5053075;28;20394;-68
2022/03/01 04:14:30;;;;;;;17.13;8.02;;;;;;;;;;5052782;28;20070;-68
2022/03/01 04:16:56;;;;;;;19.48;8.23;;;;;;;;;;5052875;28;20071;-69
2022/03/01 04:19:23;;;;;;;14.40;7.32;;;;;;;;;;5052550;28;20029;-69
2022/03/01 04:21:49;;;;;;;13.68;6.97;;;;;;;;;;5052911;28;20017;-69
2022/03/01 04:24:15;;;;;;;16.25;7.50;;;;;;;;;;5052574;28;20025;-68
2022/03/01 04:26:41;;;;;;;14.73;6.72;;;;;;;;;;5052693;28;20025;-69
2022/03/01 04:29:07;;;;;;;15.68;7.75;;;;;;;;;;5052664;28;20132;-68
2022/03/01 04:31:33;;;;;;;17.25;7.53;;;;;;;;;;5052574;28;20032;-68
2022/03/01 04:34:00;;;;;;;14.65;7.53;;;;;;;;;;5052041;28;20048;-68
2022/03/01 04:36:26;;;;;;;15.77;7.30;;;;;;;;;;5051688;28;20036;-69
2022/03/01 04:38:52;;;;;;;15.70;7.00;;;;;;;;;;5052549;28;20071;-68
2022/03/01 04:41:18;;;;;;;14.73;7.40;;;;;;;;;;5052333;28;20468;-69
2022/03/01 04:43:45;;;;;;;12.60;7.32;;;;;;;;;;5051881;28;20087;-68
2022/03/01 04:46:11;;;;;;;16.17;7.40;;;;;;;;;;5052369;28;20040;-69
2022/03/01 04:48:37;;;;;;;11.18;6.95;;;;;;;;;;5052158;28;20040;-69
2022/03/01 04:51:04;;;;;;;13.20;7.47;;;;;;;;;;5052270;28;20086;-70
2022/03/01 04:53:30;;;;;;;14.77;6.53;;;;;;;;;;5051959;28;20444;-68
2022/03/01 04:55:56;;;;;;;21.45;6.53;;;;;;;;;;5052333;28;20025;-68
2022/03/01 04:58:22;;;;;;;11.70;6.35;;;;;;;;;;5051992;28;20474;-66
2022/03/01 05:00:48;;;;;;;15.18;7.57;;;;;;;;;;5052360;28;20024;-68
2022/03/01 05:03:14;;;;;;;12.60;7.30;;;;;;;;;;5051537;28;20437;-69
2022/03/01 05:05:40;;;;;;;16.60;7.20;;;;;;;;;;5052347;28;20075;-70
2022/03/01 05:08:06;;;;;;;14.70;7.57;;;;;;;;;;5052364;28;20430;-69
2022/03/01 05:10:32;;;;;;;19.13;7.43;;;;;;;;;;5051990;28;20037;-68
2022/03/01 05:12:59;;;;;;;14.43;6.72;;;;;;;;;;5051571;28;20465;-70
2022/03/01 05:15:26;;;;;;;17.98;7.45;;;;;;;;;;5050523;28;20017;-68
2022/03/01 05:17:53;;;;;;;14.43;6.47;;;;;;;;;;5051849;28;20032;-68
2022/03/01 05:20:19;;;;;;;16.83;6.97;;;;;;;;;;5051665;28;20024;-69
2022/03/01 05:22:45;;;;;;;23.30;7.13;;;;;;;;;;5051523;28;20459;-68
2022/03/01 05:25:12;;;;;;;16.63;7.15;;;;;;;;;;5051586;28;20108;-68
2022/03/01 05:27:39;;;;;;;15.73;7.13;;;;;;;;;;5051532;28;20032;-69
2022/03/01 05:30:06;;;;;;;18.58;7.35;;;;;;;;;;5051494;28;20363;-69
2022/03/01 05:32:43;;;;;;;18.42;7.82;;;;;;;;;;5051452;28;20116;-71
2022/03/01 05:35:09;;;;;;;16.30;7.30;;;;;;;;;;5050031;28;20031;-69
2022/03/01 05:37:36;;;;;;;15.30;6.97;;;;;;;;;;5051397;28;20497;-68
2022/03/01 05:40:02;;;;;;;14.40;7.43;;;;;;;;;;5051491;28;20048;-69
2022/03/01 05:42:28;;;;;;;15.68;6.85;;;;;;;;;;5051099;28;20129;-71
2022/03/01 05:44:55;;;;;;;14.98;7.97;;;;;;;;;;5051478;28;20621;-70
2022/03/01 05:47:21;;;;;;;17.70;8.10;;;;;;;;;;5051335;28;20037;-68
2022/03/01 05:49:47;;;;;;;16.20;8.07;;;;;;;;;;5055401;28;20040;-69
2022/03/01 05:52:13;;;;;;;14.68;6.93;;;;;;;;;;5055388;28;20112;-69
2022/03/01 05:54:39;;;;;;;14.30;6.13;;;;;;;;;;5053202;28;20106;-70
2022/03/01 05:57:05;;;;;;;17.73;8.05;;;;;;;;;;5053278;28;20060;-69
2022/03/01 05:59:31;;;;;;;13.73;6.90;;;;;;;;;;5053666;28;20028;-69
2022/03/01 06:01:57;;;;;;;15.75;7.03;;;;;;;;;;5053656;28;20104;-71
2022/03/01 06:04:24;;;;;;;17.30;6.82;;;;;;;;;;5054495;28;20086;-69
2022/03/01 06:06:50;;;;;;;16.42;8.30;;;;;;;;;;5052941;28;20021;-71
2022/03/01 06:09:16;;;;;;;15.15;7.55;;;;;;;;;;5054717;28;20437;-69
2022/03/01 06:11:42;;;;;;;16.08;7.43;;;;;;;;;;5055119;28;20021;-69
2022/03/01 06:14:08;;;;;;;12.68;6.25;;;;;;;;;;5054609;28;20028;-69
2022/03/01 06:16:34;;;;;;;14.57;7.15;;;;;;;;;;5054638;28;20029;-71
2022/03/01 06:19:00;;;;;;;15.18;6.40;;;;;;;;;;5054777;28;20103;-69
2022/03/01 06:21:26;;;;;;;26.52;6.97;;;;;;;;;;5054723;28;20029;-68
2022/03/01 06:23:52;;;;;;;22.65;6.88;;;;;;;;;;5054774;28;20033;-70
2022/03/01 06:26:18;;;;;;;26.85;6.78;;;;;;;;;;5054785;28;20032;-68
2022/03/01 06:28:44;;;;;;;16.13;6.22;;;;;;;;;;5054446;28;20036;-69
2022/03/01 06:31:10;;;;;;;13.30;6.65;;;;;;;;;;5054070;28;20134;-69
2022/03/01 06:33:36;;;;;;;16.13;6.82;;;;;;;;;;5051872;28;20017;-71
2022/03/01 06:36:02;;;;;;;16.10;7.35;;;;;;;;;;5052782;28;20059;-71
2022/03/01 06:38:28;;;;;;;12.55;5.88;;;;;;;;;;5052885;28;20049;-69
2022/03/01 06:40:56;;;;;;;10.13;6.32;;;;;;;;;;5053200;28;20139;-70
2022/03/01 06:43:22;;;;;;;16.73;7.22;;;;;;;;;;5051260;28;20033;-71
2022/03/01 06:45:48;;;;;;;19.52;6.22;;;;;;;;;;5052649;28;20040;-72
2022/03/01 06:48:14;;;;;;;13.45;6.25;;;;;;;;;;5053438;28;20040;-72
2022/03/01 06:50:40;;;;;;;44.90;7.78;;;;;;;;;;5054318;28;20123;-69
2022/03/01 06:53:06;;;;;;;24.13;7.13;;;;;;;;;;5053211;28;20083;-69
2022/03/01 06:55:32;;;;;;;14.30;6.55;;;;;;;;;;5053384;28;20025;-69
2022/03/01 06:57:58;;;;;;;12.30;6.18;;;;;;;;;;5052586;28;20017;-71
2022/03/01 07:00:25;;;;;;;14.30;6.80;;;;;;;;;;5052113;28;20394;-71
2022/03/01 07:02:50;;;;;;;12.77;6.30;;;;;;;;;;5053450;28;20032;-71
2022/03/01 07:05:17;;;;;;;12.88;6.32;;;;;;;;;;5054084;28;20031;-71
2022/03/01 07:07:44;;;;;;;13.50;6.85;;;;;;;;;;5054000;28;20033;-68
2022/03/01 07:10:11;;;;;;;12.57;6.32;;;;;;;;;;5053659;28;20119;-70
2022/03/01 07:12:38;;;;;;;12.65;6.82;;;;;;;;;;5049987;28;20017;-70
2022/03/01 07:15:05;;;;;;;12.70;6.38;;;;;;;;;;5051504;28;20049;-70
2022/03/01 07:17:31;;;;;;;13.85;6.30;;;;;;;;;;5051231;28;20483;-71
2022/03/01 07:19:57;;;;;;;14.68;6.30;;;;;;;;;;5051769;28;20028;-68
2022/03/01 07:22:24;;;;;;;14.35;7.00;;;;;;;;;;5051711;28;20080;-70
2022/03/01 07:24:50;;;;;;;14.32;7.05;;;;;;;;;;5051523;28;20021;-69
2022/03/01 07:27:16;;;;;;;13.88;7.70;;;;;;;;;;5053152;28;20531;-68
2022/03/01 07:29:42;;;;;;;22.15;7.07;;;;;;;;;;5052092;28;20029;-70
2022/03/01 07:32:08;;;;;;;14.52;6.57;;;;;;;;;;5051464;28;20027;-72
2022/03/01 07:34:34;;;;;;;13.73;6.35;;;;;;;;;;5051784;28;20024;-71
2022/03/01 07:37:00;;;;;;;12.30;6.57;;;;;;;;;;5051951;28;20025;-73
2022/03/01 07:39:26;;;;;;;21.85;7.35;;;;;;;;;;5053129;28;20025;-70
2022/03/01 07:41:52;;;;;;;16.85;6.03;;;;;;;;;;5053665;28;20028;-71
2022/03/01 07:44:18;;;;;;;21.05;6.97;;;;;;;;;;5052832;28;20033;-70
2022/03/01 07:46:44;;;;;;;18.80;6.43;;;;;;;;;;5053442;28;20336;-72
2022/03/01 07:49:10;;;;;;;13.02;6.18;;;;;;;;;;5053211;28;20063;-71
2022/03/01 07:51:36;;;;;;;14.20;5.82;;;;;;;;;;5052735;28;20021;-74
2022/03/01 07:54:02;;;;;;;11.60;6.28;;;;;;;;;;5052626;28;20057;-73
2022/03/01 07:56:28;;;;;;;11.65;6.20;;;;;;;;;;5052909;28;20025;-74
2022/03/01 07:58:54;;;;;;;15.00;6.63;;;;;;;;;;5052984;28;20021;-73
2022/03/01 08:01:21;;;;;;;13.65;6.35;;;;;;;;;;5053126;28;20103;-73
2022/03/01 08:03:47;;;;;;;14.30;6.93;;;;;;;;;;5052461;28;20479;-72
2022/03/01 08:06:13;;;;;;;24.75;9.82;;;;;;;;;;5052986;28;20028;-72
2022/03/01 08:08:39;;;;;;;12.60;6.28;;;;;;;;;;5051633;28;20028;-73
2022/03/01 08:11:05;;;;;;;16.23;6.03;;;;;;;;;;5052462;28;20033;-71
2022/03/01 08:13:32;;;;;;;10.55;6.30;;;;;;;;;;5052821;28;20044;-73
2022/03/01 08:15:58;;;;;;;11.55;6.45;;;;;;;;;;5052912;28;20029;-74
2022/03/01 08:18:24;;;;;;;10.38;6.10;;;;;;;;;;5053216;28;20425;-73
2022/03/01 08:20:50;;;;;;;16.58;6.32;;;;;;;;;;5051664;28;20056;-69
2022/03/01 08:23:16;;;;;;;11.15;5.28;;;;;;;;;;5052378;28;20025;-68
2022/03/01 08:25:43;;;;;;;13.32;7.97;;;;;;;;;;5052342;28;20082;-69
2022/03/01 08:28:09;;;;;;;14.98;6.80;;;;;;;;;;5052752;28;20028;-69
2022/03/01 08:30:38;;;;;;;11.48;5.70;;;;;;;;;;5052488;28;20025;-69
2022/03/01 08:33:04;;;;;;;11.45;6.07;;;;;;;;;;5052154;28;20226;-69
2022/03/01 08:35:32;;;;;;;12.40;6.45;;;;;;;;;;5052629;28;20056;-66
2022/03/01 08:38:02;;;;;;;11.20;5.60;;;;;;;;;;5052030;28;20025;-68
2022/03/01 08:40:28;;;;;;;9.70;5.75;;;;;;;;;;5052345;28;20020;-69
2022/03/01 08:42:54;;;;;;;12.30;6.10;;;;;;;;;;5051974;28;20398;-70
2022/03/01 08:45:20;;;;;;;10.32;5.60;;;;;;;;;;5052351;28;20025;-69
2022/03/01 08:47:46;;;;;;;11.80;5.88;;;;;;;;;;5052758;28;20100;-69
2022/03/01 08:50:12;;;;;;;15.18;6.97;;;;;;;;;;5050677;28;20499;-69
2022/03/01 08:52:39;;;;;;;12.23;6.53;;;;;;;;;;5051780;28;20044;-71
2022/03/01 08:55:06;;;;;;;11.75;6.03;;;;;;;;;;5051937;28;20044;-69
2022/03/01 08:57:32;;;;;;;12.55;6.05;;;;;;;;;;5052030;28;20513;-72
2022/03/01 08:59:58;;;;;;;9.90;5.40;;;;;;;;;;5052350;28;20032;-74
2022/03/01 09:02:24;;;;;;;17.83;6.03;;;;;;;;;;5052314;28;20109;-72
2022/03/01 09:04:50;;;;;;;10.27;4.95;;;;;;;;;;5052145;28;20029;-71
2022/03/01 09:07:16;;;;;;;11.88;6.10;;;;;;;;;;5052145;28;20025;-73
2022/03/01 09:09:42;;;;;;;11.18;6.22;;;;;;;;;;5052218;28;20478;-71
2022/03/01 09:12:08;;;;;;;14.25;7.47;;;;;;;;;;5051846;28;20399;-75
2022/03/01 09:14:34;;;;;;;7.68;3.92;;;;;;;;;;5051609;28;20402;-73
2022/03/01 09:17:00;;;;;;;15.82;8.23;;;;;;;;;;5051943;28;20109;-73
2022/03/01 09:19:26;;;;;;;63.35;29.23;;;;;;;;;;5051672;28;20471;-74
2022/03/01 09:21:51;;;;;;;6.95;4.50;;;;;;;;;;5051588;28;20430;-71
2022/03/01 09:24:18;;;;;;;11.35;4.85;;;;;;;;;;5051493;28;20029;-74
2022/03/01 09:26:44;;;;;;;12.38;5.97;;;;;;;;;;5051988;28;20143;-69
2022/03/01 09:29:10;;;;;;;8.18;4.57;;;;;;;;;;5051811;28;20083;-72
2022/03/01 09:31:36;;;;;;;11.68;4.25;;;;;;;;;;5051445;28;20036;-71
2022/03/01 09:34:02;;;;;;;8.35;3.58;;;;;;;;;;5051171;28;20110;-74
2022/03/01 09:36:28;;;;;;;17.55;4.50;;;;;;;;;;5050267;28;20021;-74
2022/03/01 09:38:54;;;;;;;11.65;4.35;;;;;;;;;;5051566;28;20075;-74
2022/03/01 09:41:21;;;;;;;8.90;3.90;;;;;;;;;;5051445;28;20053;-75
2022/03/01 09:43:47;;;;;;;8.68;3.60;;;;;;;;;;5064876;22;20102;-76
2022/03/01 09:46:13;;;;;;;7.45;4.03;;;;;;;;;;5053694;28;20032;-76
2022/03/01 09:48:39;;;;;;;8.38;4.65;;;;;;;;;;5054060;28;20479;-75
2022/03/01 09:51:06;;;;;;;6.93;3.70;;;;;;;;;;5052339;28;20120;-75
2022/03/01 09:53:32;;;;;;;9.07;4.88;;;;;;;;;;5050700;28;20021;-76
2022/03/01 09:56:02;;;;;;;40.88;21.63;;;;;;;;;;5051725;28;20021;-74
2022/03/01 09:58:29;;;;;;;9.15;4.28;;;;;;;;;;5051581;28;20021;-72
2022/03/01 10:00:55;;;;;;;25.17;10.90;;;;;;;;;;5051607;28;20108;-73
2022/03/01 10:03:21;;;;;;;11.90;5.43;;;;;;;;;;5051340;28;20048;-75
2022/03/01 10:05:47;;;;;;;7.93;3.88;;;;;;;;;;5051560;28;20059;-74
2022/03/01 10:08:14;;;;;;;48.70;22.80;;;;;;;;;;5050557;28;20446;-72
2022/03/01 10:10:45;;;;;;;7.65;4.22;;;;;;;;;;5052220;28;20418;-76
2022/03/01 10:13:13;;;;;;;37.25;19.30;;;;;;;;;;5051832;28;20036;-76
2022/03/01 10:15:39;;;;;;;33.25;17.27;;;;;;;;;;5051982;28;20537;-75
2022/03/01 10:18:10;;;;;;;7.65;4.00;;;;;;;;;;5051447;28;20036;-75
2022/03/01 10:20:36;;;;;;;7.28;3.42;;;;;;;;;;5052182;28;20402;-76
2022/03/01 10:23:02;;;;;;;9.52;4.32;;;;;;;;;;5050086;28;20510;-76
2022/03/01 10:25:28;;;;;;;10.25;5.25;;;;;;;;;;5051636;28;20033;-76
2022/03/01 10:27:56;;;;;;;9.93;4.90;;;;;;;;;;5051760;28;20028;-78
2022/03/01 10:30:27;;;;;;;9.40;4.65;;;;;;;;;;5051572;28;20459;-74
2022/03/01 10:33:03;;;;;;;7.43;4.50;;;;;;;;;;5051171;28;20022;-75
2022/03/01 10:35:29;;;;;;;7.97;4.85;;;;;;;;;;5053120;28;20475;-77
2022/03/01 10:37:55;;;;;;;9.38;4.50;;;;;;;;;;5054964;28;20031;-77
2022/03/01 10:40:22;;;;;;;6.22;4.00;;;;;;;;;;5055001;28;20115;-75
2022/03/01 10:43:05;;;;;;;9.15;4.78;;;;;;;;;;5054884;28;20083;-75
2022/03/01 10:45:32;;;;;;;36.75;9.07;;;;;;;;;;5053645;28;20043;-76
2022/03/01 10:47:58;;;;;;;8.10;4.55;;;;;;;;;;5054959;28;20386;-76
2022/03/01 10:50:24;;;;;;;8.65;4.20;;;;;;;;;;5053403;28;20530;-77
2022/03/01 10:52:50;;;;;;;8.73;4.78;;;;;;;;;;5055189;28;20047;-76
2022/03/01 10:55:24;;;;;;;6.05;4.25;;;;;;;;;;5055475;28;20056;-75
2022/03/01 10:57:56;;;;;;;11.82;5.55;;;;;;;;;;5055408;28;20017;-73
2022/03/01 11:00:22;;;;;;;8.65;3.97;;;;;;;;;;5055642;28;20031;-73
2022/03/01 11:02:48;;;;;;;31.20;15.38;;;;;;;;;;5054696;28;20032;-73
2022/03/01 11:05:14;;;;;;;8.85;4.82;;;;;;;;;;5055050;28;20035;-72
2022/03/01 11:07:40;;;;;;;11.60;5.45;;;;;;;;;;5055451;28;20064;-73
2022/03/01 11:10:07;;;;;;;12.35;5.72;;;;;;;;;;5055697;28;20071;-73
2022/03/01 11:12:33;;;;;;;8.65;4.72;;;;;;;;;;5055730;28;20048;-73
2022/03/01 11:15:05;;;;;;;9.52;4.63;;;;;;;;;;5054638;28;20032;-73
2022/03/01 11:17:49;;;;;;;9.23;4.43;;;;;;;;;;5055151;28;20100;-73
2022/03/01 11:20:24;;;;;;;7.88;4.93;;;;;;;;;;5055449;28;20368;-73
2022/03/01 11:23:22;;;;;;;7.75;4.13;;;;;;;;;;5054732;28;20426;-72
2022/03/01 11:25:48;;;;;;;10.02;4.95;;;;;;;;;;5021150;28;20090;-72
2022/03/01 11:28:14;;;;;;;6.10;4.15;;;;;;;;;;5053170;28;20029;-73
2022/03/01 11:30:45;;;;;;;8.75;4.55;;;;;;;;;;5054743;28;20040;-73
2022/03/01 11:33:11;;;;;;;9.77;4.77;;;;;;;;;;5054576;28;20080;-75
2022/03/01 11:35:39;;;;;;;9.32;4.15;;;;;;;;;;5054479;28;20268;-77
2022/03/01 11:38:11;;;;;;;11.35;4.20;;;;;;;;;;5054642;28;20021;-76
2022/03/01 11:40:44;;;;;;;9.02;4.63;;;;;;;;;;5054525;28;20033;-75
2022/03/01 11:43:15;;;;;;;10.38;4.50;;;;;;;;;;5053940;28;20032;-76
2022/03/01 11:45:45;;;;;;;8.15;4.53;;;;;;;;;;5054286;28;20212;-77
2022/03/01 11:48:13;;;;;;;10.25;5.72;;;;;;;;;;5054740;28;20033;-74
2022/03/01 11:50:56;;;;;;;16.45;5.70;;;;;;;;;;5054181;28;20032;-74
2022/03/01 11:53:23;;;;;;;10.90;4.50;;;;;;;;;;5053572;28;20375;-75
2022/03/01 11:55:51;;;;;;;9.50;4.68;;;;;;;;;;5053686;28;20052;-76
2022/03/01 11:58:18;;;;;;;13.80;6.35;;;;;;;;;;5053599;28;20024;-76
2022/03/01 12:00:44;;;;;;;9.20;4.70;;;;;;;;;;5053130;28;20044;-77
2022/03/01 12:03:11;;;;;;;10.38;5.28;;;;;;;;;;5051794;28;20442;-75
2022/03/01 12:05:38;;;;;;;11.95;5.38;;;;;;;;;;5054068;28;20448;-77
2022/03/01 12:08:12;;;;;;;19.48;9.50;;;;;;;;;;5053889;28;20108;-77
2022/03/01 12:10:38;;;;;;;21.48;8.93;;;;;;;;;;5054561;28;20033;-77
2022/03/01 12:13:07;;;;;;;8.60;5.00;;;;;;;;;;5054045;28;20029;-76
2022/03/01 12:15:37;;;;;;;8.57;4.95;;;;;;;;;;5053467;28;20517;-74
2022/03/01 12:18:13;;;;;;;11.13;5.53;;;;;;;;;;5054765;28;20025;-76
2022/03/01 12:20:40;;;;;;;76.70;36.53;;;;;;;;;;5054994;28;20029;-74
2022/03/01 12:23:06;;;;;;;9.88;5.15;;;;;;;;;;5054261;28;20021;-74
2022/03/01 12:25:34;;;;;;;19.27;8.90;;;;;;;;;;5054301;28;20021;-75
2022/03/01 12:28:01;;;;;;;23.27;8.90;;;;;;;;;;5052777;28;20021;-74
2022/03/01 12:30:27;;;;;;;10.23;5.80;;;;;;;;;;5054967;28;20112;-75
2022/03/01 12:32:54;;;;;;;79.07;36.60;;;;;;;;;;5054716;28;20049;-75
2022/03/01 12:35:21;;;;;;;13.55;6.03;;;;;;;;;;5056688;28;20231;-76
2022/03/01 12:37:47;;;;;;;11.75;5.50;;;;;;;;;;5056762;28;20264;-77
2022/03/01 12:40:13;;;;;;;11.38;5.43;;;;;;;;;;5057760;28;20032;-73
2022/03/01 12:42:39;;;;;;;13.63;5.10;;;;;;;;;;5054812;28;20040;-71
2022/03/01 12:45:05;;;;;;;9.90;5.15;;;;;;;;;;5054259;28;20037;-71
2022/03/01 12:47:31;;;;;;;11.48;6.18;;;;;;;;;;5054049;28;20024;-72
2022/03/01 12:49:57;;;;;;;12.75;5.32;;;;;;;;;;5053592;28;20027;-76
2022/03/01 12:52:23;;;;;;;29.15;13.70;;;;;;;;;;5054848;28;20505;-76
2022/03/01 12:54:50;;;;;;;13.98;5.95;;;;;;;;;;5054039;28;20047;-75
2022/03/01 12:57:17;;;;;;;21.00;5.63;;;;;;;;;;5054467;28;20075;-73
2022/03/01 12:59:44;;;;;;;34.50;15.98;;;;;;;;;;5055777;28;20031;-73
2022/03/01 13:02:10;;;;;;;15.18;7.57;;;;;;;;;;5055466;28;20459;-76
2022/03/01 13:04:37;;;;;;;13.13;6.25;;;;;;;;;;5055173;28;20037;-75
2022/03/01 13:07:03;;;;;;;9.15;4.82;;;;;;;;;;5054707;28;20040;-78
2022/03/01 13:09:29;;;;;;;10.38;5.80;;;;;;;;;;5054079;28;20515;-73
2022/03/01 13:11:56;;;;;;;12.98;5.70;;;;;;;;;;5053906;28;20021;-73
2022/03/01 13:14:22;;;;;;;12.63;6.03;;;;;;;;;;5052653;28;20041;-74
2022/03/01 13:16:48;;;;;;;11.73;6.28;;;;;;;;;;5053317;28;20025;-73
2022/03/01 13:19:18;;;;;;;27.80;8.50;;;;;;;;;;5053793;28;20023;-73
2022/03/01 13:21:46;;;;;;;27.63;11.20;;;;;;;;;;5052727;28;20052;-74
2022/03/01 13:24:14;;;;;;;19.42;6.55;;;;;;;;;;5050710;28;20048;-74
2022/03/01 13:26:41;;;;;;;10.68;5.78;;;;;;;;;;5051484;28;20215;-74
2022/03/01 13:29:08;;;;;;;10.85;5.97;;;;;;;;;;5052069;28;20108;-73
2022/03/01 13:31:35;;;;;;;9.27;5.50;;;;;;;;;;5052365;28;20060;-73
2022/03/01 13:34:00;;;;;;;10.20;5.18;;;;;;;;;;5052009;28;20471;-75
2022/03/01 13:36:31;;;;;;;12.00;5.68;;;;;;;;;;5052134;28;20029;-75
2022/03/01 13:39:01;;;;;;;14.40;5.45;;;;;;;;;;5052033;28;20487;-75
2022/03/01 13:41:29;;;;;;;11.85;5.75;;;;;;;;;;5051820;28;20032;-75
2022/03/01 13:43:55;;;;;;;15.60;5.30;;;;;;;;;;5049690;28;20086;-71
2022/03/01 13:46:21;;;;;;;10.30;5.20;;;;;;;;;;5052305;28;20062;-71
2022/03/01 13:48:47;;;;;;;16.00;8.13;;;;;;;;;;5053085;28;20029;-74
2022/03/01 13:51:13;;;;;;;13.10;5.72;;;;;;;;;;5052146;28;20106;-71
2022/03/01 13:53:39;;;;;;;51.10;24.85;;;;;;;;;;5052532;28;20025;-75
2022/03/01 13:56:06;;;;;;;48.97;25.38;;;;;;;;;;5052006;28;20074;-74
2022/03/01 13:58:32;;;;;;;13.35;6.40;;;;;;;;;;5052335;28;20028;-75
2022/03/01 14:00:59;;;;;;;17.05;7.85;;;;;;;;;;5050693;28;20035;-75
2022/03/01 14:03:34;;;;;;;10.45;5.68;;;;;;;;;;5051806;28;20040;-74
2022/03/01 14:06:00;;;;;;;10.68;5.00;;;;;;;;;;5051910;28;20510;-76
2022/03/01 14:08:27;;;;;;;11.02;5.75;;;;;;;;;;5052731;28;20033;-76
2022/03/01 14:10:56;;;;;;;10.60;5.82;;;;;;;;;;5055799;28;20025;-73
2022/03/01 14:13:27;;;;;;;10.77;5.72;;;;;;;;;;5055408;28;20402;-76
2022/03/01 14:16:02;;;;;;;12.18;5.43;;;;;;;;;;5055493;28;20024;-76
2022/03/01 14:18:33;;;;;;;23.85;12.00;;;;;;;;;;5055758;28;20029;-75
2022/03/01 14:20:59;;;;;;;9.35;5.32;;;;;;;;;;5054623;28;20765;-75
2022/03/01 14:23:31;;;;;;;8.85;4.85;;;;;;;;;;5055637;28;20037;-76
2022/03/01 14:25:58;;;;;;;11.32;5.90;;;;;;;;;;5055596;28;20104;-75
2022/03/01 14:28:24;;;;;;;10.05;5.15;;;;;;;;;;5055403;28;20028;-76